Time;durP1;ratioP1;P1;durP2;ratioP2;P2;SDS_P1;SDS_P2;PMS_P1;PMS_P2;Temp;Humidity;BMP_temperature;BMP_pressure;BME280_temperature;BME280_humidity;BME280_pressure;Samples;Min_cycle;Max_cycle;Signal;HPM_P1;HPM_P2
2022/12/27 00:01:54;;;;;;;0.90;0.60;;;;;;;12.28;33.17;99805.56;6036039;23;20378;-85
2022/12/27 00:04:19;;;;;;;1.00;0.60;;;;;;;12.42;33.37;99825.91;5987123;23;20071;-85
2022/12/27 00:06:45;;;;;;;0.73;0.55;;;;;;;12.32;33.46;99796.06;5963488;23;20007;-85
2022/12/27 00:09:12;;;;;;;1.13;0.50;;;;;;;12.38;33.51;99812.13;5964330;23;20463;-85
2022/12/27 00:11:38;;;;;;;1.08;0.50;;;;;;;12.43;33.80;99810.66;5966237;23;20030;-85
2022/12/27 00:14:05;;;;;;;1.35;0.47;;;;;;;12.20;33.73;99771.81;6012855;23;20421;-85
2022/12/27 00:16:30;;;;;;;2.13;0.60;;;;;;;12.10;33.74;99761.53;6011229;23;20007;-85
2022/12/27 00:18:59;;;;;;;0.68;0.60;;;;;;;12.20;33.73;99771.81;6036705;23;20018;-86
2022/12/27 00:21:25;;;;;;;1.42;0.70;;;;;;;12.29;33.54;99791.13;6036527;23;20007;-86
2022/12/27 00:23:53;;;;;;;1.38;0.70;;;;;;;12.24;34.11;99766.84;5964304;23;20485;-86
2022/12/27 00:26:26;;;;;;;0.93;0.50;;;;;;;12.33;33.71;99779.78;5964450;23;20086;-85
2022/12/27 00:29:02;;;;;;;1.50;0.60;;;;;;;12.38;33.49;99782.66;5963774;23;20007;-85
2022/12/27 00:31:29;;;;;;;0.60;0.60;;;;;;;12.38;33.72;99785.34;6010223;23;20022;-85
2022/12/27 00:33:57;;;;;;;1.10;0.50;;;;;;;12.34;33.58;99784.09;5986992;23;20007;-85
2022/12/27 00:36:24;;;;;;;1.10;0.63;;;;;;;12.37;33.79;99782.88;5963853;23;20070;-85
2022/12/27 00:38:53;;;;;;;0.93;0.70;;;;;;;12.23;33.98;99760.69;5963995;23;20017;-85
2022/12/27 00:41:19;;;;;;;1.00;0.52;;;;;;;12.46;34.11;99808.38;5964069;23;20007;-86
2022/12/27 00:43:45;;;;;;;0.63;0.50;;;;;;;12.31;33.92;99775.66;5986771;23;20022;-85
2022/12/27 00:46:11;;;;;;;0.63;0.40;;;;;;;12.22;34.16;99767.06;6009882;23;20011;-85
2022/12/27 00:48:36;;;;;;;0.80;0.55;;;;;;;12.19;33.78;99760.28;6010397;23;20337;-85
2022/12/27 00:51:05;;;;;;;0.95;0.52;;;;;;;12.19;33.63;99757.59;5962809;23;20090;-85
2022/12/27 00:53:31;;;;;;;0.60;0.50;;;;;;;12.36;33.85;99779.34;5962952;23;20015;-85
2022/12/27 00:55:56;;;;;;;1.15;0.70;;;;;;;12.39;33.75;99786.16;5986231;23;20521;-87
2022/12/27 00:58:25;;;;;;;1.05;0.60;;;;;;;12.16;33.66;99733.91;5963662;23;20003;-86
2022/12/27 01:00:51;;;;;;;1.33;0.68;;;;;;;12.24;33.27;99756.13;5963666;23;20019;-85
2022/12/27 01:03:17;;;;;;;1.08;0.70;;;;;;;12.40;33.96;99761.81;5995308;23;20027;-85
2022/12/27 01:05:42;;;;;;;0.40;0.40;;;;;;;12.39;33.79;99754.00;6037478;23;20014;-85
2022/12/27 01:08:08;;;;;;;1.17;0.63;;;;;;;12.42;33.93;99771.47;6014542;23;20051;-85
2022/12/27 01:10:34;;;;;;;1.20;0.80;;;;;;;12.35;33.60;99747.44;6038351;23;20130;-85
2022/12/27 01:13:04;;;;;;;0.60;0.55;;;;;;;12.28;33.94;99741.25;6013522;23;20018;-85
2022/12/27 01:15:30;;;;;;;1.95;0.70;;;;;;;12.21;33.38;99720.69;6037611;23;20022;-85
2022/12/27 01:17:56;;;;;;;1.40;0.60;;;;;;;12.34;33.79;99740.41;6014481;23;20073;-85
2022/12/27 01:20:22;;;;;;;0.50;0.50;;;;;;;12.11;34.05;99698.91;6061610;23;20006;-85
2022/12/27 01:22:47;;;;;;;0.47;0.40;;;;;;;12.37;34.21;99734.63;6061676;23;20007;-85
2022/12/27 01:25:13;;;;;;;0.82;0.60;;;;;;;12.33;34.28;99711.97;6013590;23;20508;-85
2022/12/27 01:27:39;;;;;;;0.77;0.50;;;;;;;12.43;34.01;99719.53;6037543;23;20032;-85
2022/12/27 01:30:05;;;;;;;0.52;0.40;;;;;;;12.33;34.09;99701.25;6038224;23;20446;-85
2022/12/27 01:32:34;;;;;;;0.85;0.52;;;;;;;12.24;34.11;99673.88;6014010;23;20010;-85
2022/12/27 01:35:00;;;;;;;1.02;0.65;;;;;;;12.26;34.16;99673.69;6037597;23;20066;-85
2022/12/27 01:37:28;;;;;;;0.60;0.60;;;;;;;12.33;34.17;99674.44;6013913;23;20348;-85
2022/12/27 01:39:54;;;;;;;1.10;0.60;;;;;;;12.38;34.01;99672.78;6037536;23;20007;-85
2022/12/27 01:45:33;;;;;;;1.33;0.60;;;;;;;12.36;33.84;99669.47;6041440;23;20017;-85
2022/12/27 01:48:20;;;;;;;0.60;0.50;;;;;;;12.44;33.91;99681.81;6040971;23;20066;-85
2022/12/27 01:50:54;;;;;;;0.85;0.63;;;;;;;12.40;33.89;99664.53;6037723;23;20099;-86
2022/12/27 01:53:24;;;;;;;0.93;0.70;;;;;;;12.38;34.08;99661.22;6015415;23;20015;-85
2022/12/27 01:55:55;;;;;;;1.08;0.70;;;;;;;12.44;34.15;99665.72;6014810;23;20022;-86
2022/12/27 01:58:25;;;;;;;0.77;0.57;;;;;;;12.44;34.19;99656.88;6014071;23;20353;-86
2022/12/27 02:00:51;;;;;;;0.68;0.63;;;;;;;12.43;33.82;99647.19;6014431;23;20081;-86
2022/12/27 02:03:37;;;;;;;0.82;0.70;;;;;;;12.50;33.86;99642.59;6036299;23;20121;-86
2022/12/27 02:06:04;;;;;;;1.25;0.60;;;;;;;12.44;34.19;99638.94;6037861;23;20451;-86
2022/12/27 02:08:40;;;;;;;0.73;0.50;;;;;;;12.38;33.85;99629.06;6038048;23;20501;-85
2022/12/27 02:11:07;;;;;;;1.42;0.80;;;;;;;12.46;33.77;99631.50;6038466;23;20449;-85
2022/12/27 02:13:34;;;;;;;1.23;0.70;;;;;;;12.48;33.94;99624.03;6014275;23;20013;-86
2022/12/27 02:16:00;;;;;;;0.98;0.70;;;;;;;12.42;33.98;99611.53;6013975;23;20336;-86
2022/12/27 02:18:26;;;;;;;1.20;0.60;;;;;;;12.48;33.93;99626.72;6037169;23;20082;-86
2022/12/27 02:21:33;;;;;;;1.17;0.77;;;;;;;12.50;33.87;99616.59;6013737;23;20467;-86
2022/12/27 02:24:09;;;;;;;0.52;0.52;;;;;;;12.51;33.86;99612.06;6037265;23;20015;-86
2022/12/27 02:26:41;;;;;;;1.00;0.60;;;;;;;12.50;33.87;99597.03;6061171;23;20062;-85
2022/12/27 02:29:41;;;;;;;0.60;0.50;;;;;;;12.52;34.12;99586.91;6060918;23;20379;-85
2022/12/27 02:32:21;;;;;;;1.33;0.70;;;;;;;12.52;33.88;99593.09;6061034;23;20018;-85
2022/12/27 02:35:07;;;;;;;0.70;0.68;;;;;;;12.48;34.10;99583.84;6037290;23;20017;-86
2022/12/27 02:37:35;;;;;;;0.65;0.50;;;;;;;12.41;33.91;99558.97;6037390;23;20010;-85
2022/12/27 02:53:02;;;;;;;1.13;0.60;;;;;;;12.43;33.79;99564.09;6036990;23;20038;-86
2022/12/27 02:54:11;;;;;;;1.13;0.80;;;;;;;12.51;34.03;99526.31;6061507;23;20046;-86
2022/12/27 02:57:08;;;;;;;0.55;0.50;;;;;;;12.49;34.25;99513.13;6060519;23;20437;-85
2022/12/27 03:06:44;;;;;;;0.82;0.70;;;;;;;12.42;34.05;99484.75;6061072;23;20017;-85
2022/12/27 03:18:13;;;;;;;0.60;0.60;;;;;;;12.46;33.92;99475.25;6062491;23;20022;-86
2022/12/27 03:26:11;;;;;;;0.75;0.60;;;;;;;12.33;33.90;99433.31;6042801;23;20500;-85
2022/12/27 03:39:52;;;;;;;1.48;0.80;;;;;;;12.15;34.22;99372.53;6042184;23;20074;-85
2022/12/27 03:45:06;;;;;;;1.13;0.80;;;;;;;12.21;34.12;99366.25;6043250;23;20348;-85
2022/12/27 03:47:54;;;;;;;1.48;0.52;;;;;;;12.50;34.11;99402.19;6015881;23;20341;-85
2022/12/27 03:50:29;;;;;;;0.70;0.70;;;;;;;12.52;34.39;99410.84;6039182;23;20046;-85
2022/12/27 03:53:03;;;;;;;0.88;0.80;;;;;;;12.40;34.14;99381.31;6063217;23;20078;-85
2022/12/27 03:55:28;;;;;;;1.00;0.85;;;;;;;12.30;34.08;99364.13;6063138;23;20015;-85
2022/12/27 03:57:54;;;;;;;1.00;0.80;;;;;;;12.31;33.95;99350.47;6062674;23;20441;-85
2022/12/27 04:00:20;;;;;;;1.00;0.90;;;;;;;12.31;34.06;99355.03;6038460;23;20078;-85
2022/12/27 04:02:45;;;;;;;1.33;0.93;;;;;;;12.18;34.09;99335.38;6014629;23;20029;-85
2022/12/27 04:05:11;;;;;;;0.85;0.65;;;;;;;12.30;34.05;99354.22;6038072;23;20019;-85
2022/12/27 04:07:37;;;;;;;1.02;0.80;;;;;;;12.35;34.09;99350.88;6064564;23;20003;-85
2022/12/27 04:34:42;;;;;;;1.40;0.82;;;;;;;12.21;33.95;99270.66;6041280;23;20022;-85
2022/12/27 04:37:09;;;;;;;1.10;0.77;;;;;;;12.23;34.18;99269.59;6014286;23;20017;-85
2022/12/27 04:39:35;;;;;;;1.73;0.95;;;;;;;12.39;34.08;99285.88;6062319;23;20010;-85
2022/12/27 04:55:57;;;;;;;1.08;0.70;;;;;;;12.36;34.07;99264.06;6042263;23;20098;-85
2022/12/27 04:58:26;;;;;;;0.65;0.65;;;;;;;12.20;34.10;99220.00;6037820;23;20452;-86
2022/12/27 05:03:36;;;;;;;0.75;0.75;;;;;;;12.24;34.17;99221.16;6039827;23;20086;-86
2022/12/27 05:06:01;;;;;;;0.60;0.60;;;;;;;12.14;34.25;99202.97;5962516;23;20007;-86
2022/12/27 05:14:01;;;;;;;0.82;0.60;;;;;;;12.38;34.25;99240.56;6033015;23;20015;-86
2022/12/27 05:16:34;;;;;;;0.65;0.52;;;;;;;12.35;34.33;99217.72;5964510;23;20148;-86
2022/12/27 05:19:00;;;;;;;0.82;0.70;;;;;;;12.31;34.54;99199.63;5985907;23;20015;-86
2022/12/27 05:21:26;;;;;;;0.90;0.77;;;;;;;12.41;34.39;99215.97;5962279;23;20011;-86
2022/12/27 05:26:37;;;;;;;0.95;0.75;;;;;;;12.42;34.36;99204.22;5993200;23;20418;-86
2022/12/27 05:29:03;;;;;;;1.13;0.80;;;;;;;12.18;34.46;99168.50;5984650;23;20015;-86
2022/12/27 05:31:28;;;;;;;0.90;0.80;;;;;;;12.31;34.24;99181.69;5985665;23;20005;-86
2022/12/27 05:33:54;;;;;;;0.80;0.75;;;;;;;12.37;34.23;99188.84;5962944;23;20007;-86
2022/12/27 05:36:20;;;;;;;0.50;0.50;;;;;;;12.37;34.34;99185.34;5962074;23;20013;-86
2022/12/27 05:38:46;;;;;;;1.33;0.80;;;;;;;12.43;34.17;99197.81;5962323;23;20012;-86
2022/12/27 05:41:11;;;;;;;0.80;0.80;;;;;;;12.35;34.35;99171.38;6008599;23;20007;-86
2022/12/27 05:43:37;;;;;;;0.85;0.70;;;;;;;12.19;34.25;99154.91;5985669;23;20016;-85
2022/12/27 05:46:14;;;;;;;1.27;0.88;;;;;;;12.37;34.22;99170.06;5986165;23;20380;-85
2022/12/27 05:48:40;;;;;;;0.77;0.77;;;;;;;12.20;34.22;99148.47;5963478;23;20086;-85
2022/12/27 05:51:13;;;;;;;1.27;0.80;;;;;;;12.22;34.41;99150.94;5986418;23;20048;-85
2022/12/27 05:53:39;;;;;;;1.05;0.70;;;;;;;12.02;34.48;99122.59;6034989;23;20015;-85
2022/12/27 05:56:05;;;;;;;1.15;0.70;;;;;;;12.08;34.25;99131.56;5963141;23;20016;-86
2022/12/27 05:58:31;;;;;;;1.95;0.75;;;;;;;12.27;34.40;99152.94;5986237;23;20007;-85
2022/12/27 06:01:00;;;;;;;0.60;0.60;;;;;;;11.98;34.51;99109.88;6009223;23;20016;-85
2022/12/27 06:03:26;;;;;;;0.60;0.57;;;;;;;12.16;34.31;99133.13;5999323;23;20046;-85
2022/12/27 06:05:56;;;;;;;1.00;0.82;;;;;;;12.12;34.18;99130.06;6014421;23;20500;-85
2022/12/27 06:08:22;;;;;;;0.65;0.65;;;;;;;12.06;34.26;99117.59;6062073;23;20377;-86
2022/12/27 06:10:48;;;;;;;0.90;0.70;;;;;;;12.28;34.53;99147.34;6036667;23;20010;-86
2022/12/27 06:13:14;;;;;;;0.70;0.70;;;;;;;12.25;34.23;99136.28;6012888;23;20356;-86
2022/12/27 06:15:40;;;;;;;0.60;0.60;;;;;;;12.23;34.59;99138.34;6014141;23;20025;-85
2022/12/27 06:18:06;;;;;;;0.60;0.60;;;;;;;12.13;34.45;99112.94;6012831;23;20017;-86
2022/12/27 06:20:31;;;;;;;0.60;0.60;;;;;;;12.31;34.36;99136.16;6011033;23;20007;-85
2022/12/27 06:22:59;;;;;;;0.77;0.68;;;;;;;12.17;34.39;99114.09;6011385;23;20070;-86
2022/12/27 06:25:24;;;;;;;0.65;0.60;;;;;;;12.13;34.53;99101.44;6011938;23;20066;-86
2022/12/27 06:27:50;;;;;;;0.95;0.68;;;;;;;12.27;34.65;99124.28;6011534;23;20018;-86
2022/12/27 06:30:16;;;;;;;0.80;0.80;;;;;;;12.35;34.36;99129.31;6011552;23;20097;-86
2022/12/27 06:32:41;;;;;;;0.75;0.70;;;;;;;12.39;34.37;99143.88;6011668;23;20030;-86
2022/12/27 06:35:07;;;;;;;0.88;0.68;;;;;;;12.32;34.42;99128.97;6037747;23;20166;-86
2022/12/27 06:37:33;;;;;;;0.60;0.57;;;;;;;12.30;34.67;99121.16;6014965;23;20014;-86
2022/12/27 06:39:58;;;;;;;0.60;0.60;;;;;;;12.37;34.53;99129.09;6014725;23;20406;-86
2022/12/27 06:42:24;;;;;;;0.82;0.57;;;;;;;12.33;34.37;99106.47;6015212;23;20010;-86
2022/12/27 06:44:50;;;;;;;1.38;0.70;;;;;;;12.38;34.34;99119.97;6062835;23;20086;-86
2022/12/27 06:47:27;;;;;;;0.60;0.60;;;;;;;12.35;34.50;99099.03;6014997;23;20014;-86
2022/12/27 06:49:54;;;;;;;1.65;0.63;;;;;;;12.21;34.61;99095.72;6038428;23;20067;-86
2022/12/27 06:52:22;;;;;;;0.70;0.60;;;;;;;12.20;34.45;99080.72;6015193;23;20017;-86
2022/12/27 06:54:47;;;;;;;0.50;0.50;;;;;;;11.99;34.53;99041.91;6015184;23;20006;-86
2022/12/27 06:57:13;;;;;;;0.68;0.60;;;;;;;12.26;34.24;99084.31;6037744;23;20049;-85
2022/12/27 06:59:39;;;;;;;1.80;0.75;;;;;;;12.09;34.53;99062.75;6063634;23;20061;-85
2022/12/27 07:02:05;;;;;;;0.57;0.57;;;;;;;11.94;34.46;99036.41;6061810;23;20445;-85
2022/12/27 07:04:30;;;;;;;1.13;0.90;;;;;;;12.15;34.41;99081.38;6038031;23;20011;-86
2022/12/27 07:07:00;;;;;;;0.57;0.55;;;;;;;12.16;34.51;99085.72;6038595;23;20111;-85
2022/12/27 07:09:25;;;;;;;0.90;0.65;;;;;;;12.29;34.48;99106.09;6014197;23;20457;-85
2022/12/27 07:11:52;;;;;;;0.60;0.55;;;;;;;12.23;34.24;99090.97;6038237;23;20035;-85
2022/12/27 07:14:18;;;;;;;0.50;0.50;;;;;;;12.02;34.37;99052.97;6061545;23;20007;-85
2022/12/27 07:16:44;;;;;;;0.70;0.68;;;;;;;12.13;34.39;99072.78;6037747;23;20011;-85
2022/12/27 07:19:10;;;;;;;0.70;0.70;;;;;;;12.20;34.60;99083.38;6013687;23;20110;-85
2022/12/27 07:21:37;;;;;;;0.60;0.60;;;;;;;12.02;34.66;99062.84;6014352;23;20007;-85
2022/12/27 07:24:03;;;;;;;1.23;0.60;;;;;;;12.01;34.44;99053.19;6062989;23;20010;-85
2022/12/27 07:26:29;;;;;;;0.52;0.52;;;;;;;11.96;34.80;99051.19;6063540;23;20007;-85
2022/12/27 07:28:55;;;;;;;0.80;0.70;;;;;;;11.88;34.63;99034.63;6063582;23;19995;-85
2022/12/27 07:31:28;;;;;;;0.50;0.50;;;;;;;11.97;34.92;99068.91;6014679;23;20444;-85
2022/12/27 07:33:54;;;;;;;0.98;0.70;;;;;;;12.00;34.41;99051.56;6061499;23;20472;-85
2022/12/27 07:36:34;;;;;;;1.25;0.60;;;;;;;11.98;34.80;99042.94;6038172;23;20332;-85
2022/12/27 07:39:00;;;;;;;0.68;0.63;;;;;;;12.14;34.94;99081.63;6062885;23;20380;-85
2022/12/27 07:41:26;;;;;;;0.70;0.60;;;;;;;12.05;34.67;99050.88;6013815;23;20006;-85
2022/12/27 07:43:52;;;;;;;1.00;0.70;;;;;;;12.01;34.69;99047.84;6014433;23;20018;-85
2022/12/27 07:46:22;;;;;;;0.55;0.50;;;;;;;12.13;34.62;99075.44;6014195;23;20093;-85
2022/12/27 07:48:48;;;;;;;1.10;0.80;;;;;;;11.98;34.57;99029.53;6014426;23;20340;-84
2022/12/27 07:51:15;;;;;;;0.60;0.60;;;;;;;11.98;34.45;99027.69;6061401;23;20003;-85
2022/12/27 07:53:41;;;;;;;1.25;0.77;;;;;;;11.92;34.20;99020.59;6061709;23;20034;-85
2022/12/27 07:56:11;;;;;;;1.13;0.70;;;;;;;11.95;34.27;99019.28;6063745;23;19999;-85
2022/12/27 07:58:41;;;;;;;1.10;0.50;;;;;;;11.98;34.29;99018.84;6015316;23;20065;-85
2022/12/27 08:01:07;;;;;;;1.33;0.70;;;;;;;11.94;34.61;99010.44;6013830;23;20089;-85
2022/12/27 08:03:36;;;;;;;0.65;0.65;;;;;;;12.07;34.57;99028.16;6013097;23;20019;-85
2022/12/27 08:06:02;;;;;;;0.60;0.60;;;;;;;12.01;34.48;99024.53;6014125;23;20066;-85
2022/12/27 08:08:41;;;;;;;1.35;0.70;;;;;;;12.24;34.66;99046.25;6014551;23;20071;-85
2022/12/27 08:11:07;;;;;;;0.50;0.50;;;;;;;11.93;34.60;99010.69;6016400;23;20396;-85
2022/12/27 08:13:33;;;;;;;1.77;0.75;;;;;;;11.93;34.77;99011.50;6063076;23;20013;-85
2022/12/27 08:15:58;;;;;;;0.80;0.52;;;;;;;12.16;34.92;99053.56;6015747;23;20107;-85
2022/12/27 08:18:24;;;;;;;0.47;0.47;;;;;;;11.95;34.70;99013.94;6015451;23;20003;-85
2022/12/27 08:20:50;;;;;;;0.73;0.50;;;;;;;12.03;34.51;99027.00;6062339;23;20037;-85
2022/12/27 08:23:16;;;;;;;0.70;0.60;;;;;;;11.90;34.38;99016.47;6061911;23;20007;-85
2022/12/27 08:25:42;;;;;;;0.50;0.50;;;;;;;12.18;34.80;99051.47;6061693;23;20463;-85
2022/12/27 08:28:09;;;;;;;0.52;0.50;;;;;;;12.07;34.84;99024.66;6038112;23;20010;-85
2022/12/27 08:30:35;;;;;;;1.52;0.65;;;;;;;11.90;34.83;98992.38;6038350;23;20389;-85
2022/12/27 08:33:01;;;;;;;0.98;0.68;;;;;;;11.90;35.06;98992.38;6063837;23;20013;-85
2022/12/27 08:35:27;;;;;;;0.60;0.60;;;;;;;11.96;34.73;99005.69;6062140;23;20015;-85
2022/12/27 08:37:53;;;;;;;0.65;0.60;;;;;;;11.92;34.90;98999.16;6064323;23;20014;-85
2022/12/27 08:40:19;;;;;;;0.52;0.52;;;;;;;12.13;35.06;99026.44;6014980;23;20007;-84
2022/12/27 08:42:45;;;;;;;1.33;0.77;;;;;;;12.10;34.81;99019.66;6063942;23;20007;-85
2022/12/27 08:45:11;;;;;;;0.68;0.68;;;;;;;11.77;34.65;98970.13;6061848;23;20014;-85
2022/12/27 08:47:36;;;;;;;1.02;0.57;;;;;;;12.13;34.34;99029.94;6062558;23;20509;-85
2022/12/27 08:50:02;;;;;;;0.40;0.40;;;;;;;11.77;34.90;98970.13;6063873;23;20054;-85
2022/12/27 08:52:28;;;;;;;0.60;0.60;;;;;;;11.94;35.00;98996.25;6061682;23;20014;-85
2022/12/27 08:54:54;;;;;;;0.65;0.57;;;;;;;11.90;34.80;98984.34;6062547;23;20018;-85
2022/12/27 08:57:20;;;;;;;0.52;0.52;;;;;;;12.03;34.74;99005.56;6063122;23;20010;-85
2022/12/27 08:59:46;;;;;;;0.65;0.65;;;;;;;11.81;34.90;98960.59;6014600;23;20010;-85
2022/12/27 09:02:13;;;;;;;1.15;0.82;;;;;;;11.88;34.97;98968.50;6014816;23;20445;-85
2022/12/27 09:04:38;;;;;;;0.50;0.50;;;;;;;11.99;34.96;98983.00;6062289;23;20329;-84
2022/12/27 09:07:04;;;;;;;0.80;0.63;;;;;;;11.78;35.02;98944.16;6063224;23;20006;-84
2022/12/27 09:09:30;;;;;;;0.88;0.70;;;;;;;11.91;35.00;98969.94;6063733;23;20006;-84
2022/12/27 09:11:56;;;;;;;0.80;0.57;;;;;;;11.84;35.13;98965.47;6063235;23;20018;-84
2022/12/27 09:14:21;;;;;;;0.80;0.70;;;;;;;11.87;34.82;98963.41;6063461;23;20007;-85
2022/12/27 09:16:47;;;;;;;0.60;0.60;;;;;;;11.95;35.05;98971.09;6061725;23;20017;-85
2022/12/27 09:19:13;;;;;;;0.50;0.50;;;;;;;11.74;35.04;98929.63;6014017;23;20500;-85
2022/12/27 09:21:39;;;;;;;0.65;0.63;;;;;;;11.90;34.91;98952.22;6013816;23;20030;-85
2022/12/27 09:24:06;;;;;;;0.95;0.70;;;;;;;11.88;34.99;98955.13;6013920;23;20850;-85
2022/12/27 09:26:32;;;;;;;0.65;0.60;;;;;;;11.89;35.24;98969.34;6015163;23;20037;-84
2022/12/27 09:28:58;;;;;;;0.88;0.70;;;;;;;12.08;34.88;98983.47;6063234;23;20441;-85
2022/12/27 09:31:25;;;;;;;0.77;0.60;;;;;;;11.87;35.22;98955.38;6038127;23;20059;-85
2022/12/27 09:33:51;;;;;;;0.75;0.50;;;;;;;11.93;35.22;98949.09;6014689;23;20385;-85
2022/12/27 09:36:21;;;;;;;0.60;0.60;;;;;;;11.74;34.92;98930.44;6038422;23;20285;-85
2022/12/27 09:38:47;;;;;;;1.15;0.60;;;;;;;11.80;35.31;98932.19;6014598;23;20019;-85
2022/12/27 09:41:18;;;;;;;0.60;0.57;;;;;;;11.70;35.11;98910.53;6014091;23;20461;-85
2022/12/27 09:44:18;;;;;;;0.55;0.50;;;;;;;12.07;35.14;98963.88;6038345;23;20259;-85
2022/12/27 09:47:11;;;;;;;0.98;0.60;;;;;;;11.95;35.17;98957.72;6037758;23;20011;-85
2022/12/27 09:49:37;;;;;;;1.23;0.70;;;;;;;11.79;35.18;98924.38;6037619;23;20086;-85
2022/12/27 09:52:20;;;;;;;1.25;0.70;;;;;;;11.86;35.37;98937.66;6061948;23;20456;-85
2022/12/27 09:54:53;;;;;;;1.10;0.70;;;;;;;12.03;35.34;98962.72;6039058;23;20013;-85
2022/12/27 09:57:25;;;;;;;0.47;0.47;;;;;;;11.72;35.19;98908.44;6062056;23;20476;-84
2022/12/27 09:59:54;;;;;;;0.55;0.50;;;;;;;11.86;35.30;98943.03;6061988;23;20045;-85
2022/12/27 10:02:21;;;;;;;0.90;0.60;;;;;;;11.78;35.47;98912.88;6014473;23;20047;-85
2022/12/27 10:04:47;;;;;;;0.60;0.60;;;;;;;11.95;35.39;98942.50;6064890;23;20317;-85
2022/12/27 10:07:18;;;;;;;1.50;0.65;;;;;;;11.90;35.24;98926.28;6038004;23;20042;-85
2022/12/27 10:09:57;;;;;;;0.65;0.63;;;;;;;11.94;35.24;98927.47;6037976;23;20062;-85
2022/12/27 10:12:27;;;;;;;0.85;0.80;;;;;;;12.07;35.05;98928.28;6038599;23;20444;-85
2022/12/27 10:15:15;;;;;;;1.98;0.65;;;;;;;11.94;35.30;98908.72;6062004;23;20022;-85
2022/12/27 10:17:54;;;;;;;1.17;0.63;;;;;;;12.04;35.25;98926.88;6063912;23;20006;-85
2022/12/27 10:20:26;;;;;;;0.73;0.70;;;;;;;11.87;35.33;98912.53;6038394;23;20017;-85
2022/12/27 10:22:53;;;;;;;1.13;0.80;;;;;;;11.93;35.69;98917.78;6062043;23;20005;-85
2022/12/27 10:25:21;;;;;;;0.88;0.73;;;;;;;11.87;35.46;98899.97;6013526;23;20065;-85
2022/12/27 10:27:46;;;;;;;1.90;0.80;;;;;;;11.91;35.61;98905.69;6014184;23;20002;-85
2022/12/27 10:30:14;;;;;;;0.60;0.60;;;;;;;11.99;35.25;98918.75;6037345;23;20202;-85
2022/12/27 10:32:39;;;;;;;0.93;0.60;;;;;;;12.05;35.32;98927.69;6013523;23;20010;-85
2022/12/27 10:35:05;;;;;;;0.80;0.70;;;;;;;11.92;35.41;98907.34;6012868;23;20032;-85
2022/12/27 10:37:47;;;;;;;1.00;0.70;;;;;;;12.00;35.10;98915.84;6036778;23;20234;-85
2022/12/27 10:40:20;;;;;;;0.93;0.70;;;;;;;12.07;35.27;98921.03;6040023;23;20094;-85
2022/12/27 10:43:01;;;;;;;0.60;0.60;;;;;;;12.05;35.63;98922.34;6036781;23;20039;-85
2022/12/27 10:45:35;;;;;;;1.05;0.70;;;;;;;12.03;35.29;98919.88;6062951;23;20015;-85
2022/12/27 10:48:20;;;;;;;0.80;0.70;;;;;;;12.03;35.34;98907.31;6038416;23;20351;-85
2022/12/27 10:50:49;;;;;;;;;;;;;;;12.03;35.36;98914.53;6037713;23;20007;-85
2022/12/27 10:53:44;;;;;;;1.17;0.70;;;;;;;12.03;35.28;98909.19;6060804;23;20192;-85
2022/12/27 10:56:15;;;;;;;0.77;0.75;;;;;;;11.97;35.36;98888.69;6036403;23;20084;-85
2022/12/27 10:58:42;;;;;;;1.23;0.80;;;;;;;12.03;35.42;98898.47;6038762;23;20007;-86
2022/12/27 11:01:24;;;;;;;0.82;0.80;;;;;;;11.91;35.26;98884.28;6036648;23;20318;-85
2022/12/27 11:03:59;;;;;;;0.73;0.73;;;;;;;11.95;35.57;98891.63;6037446;23;20019;-85
2022/12/27 11:06:25;;;;;;;1.02;0.90;;;;;;;11.76;35.60;98866.78;6015116;23;20111;-85
2022/12/27 11:08:52;;;;;;;1.70;0.90;;;;;;;11.90;35.48;98879.94;6013599;23;20003;-85
2022/12/27 11:11:23;;;;;;;0.60;0.60;;;;;;;12.02;35.16;98891.47;6013145;23;20038;-85
2022/12/27 11:13:49;;;;;;;0.82;0.70;;;;;;;12.00;35.57;98897.09;6014375;23;20010;-85
2022/12/27 11:16:25;;;;;;;0.88;0.73;;;;;;;12.01;35.44;98892.53;6013318;23;20070;-85
2022/12/27 11:18:51;;;;;;;1.17;0.88;;;;;;;11.91;35.64;98871.69;6037304;23;20076;-85
2022/12/27 11:21:17;;;;;;;0.63;0.57;;;;;;;11.88;35.58;98871.31;6013612;23;20011;-85
2022/12/27 11:23:48;;;;;;;0.77;0.70;;;;;;;11.78;35.80;98843.28;6014233;23;20017;-85
2022/12/27 11:26:38;;;;;;;1.80;0.80;;;;;;;11.82;35.73;98857.81;6014302;23;20007;-85
2022/12/27 11:29:04;;;;;;;1.65;0.80;;;;;;;11.87;35.90;98877.75;6014814;23;20094;-85
2022/12/27 11:31:36;;;;;;;0.90;0.80;;;;;;;11.68;35.63;98832.34;6013656;23;20078;-85
2022/12/27 11:34:22;;;;;;;1.17;0.90;;;;;;;11.94;35.96;98873.91;6014315;23;20006;-85
2022/12/27 11:36:49;;;;;;;0.90;0.90;;;;;;;11.90;35.65;98867.38;6040788;23;20018;-86
2022/12/27 11:39:50;;;;;;;1.48;0.82;;;;;;;12.02;35.59;98886.97;6013530;23;20074;-85
2022/12/27 11:42:50;;;;;;;1.38;0.77;;;;;;;12.02;35.86;98880.75;6037467;23;20007;-86
2022/12/27 11:45:44;;;;;;;1.00;0.90;;;;;;;11.84;35.94;98857.59;5991738;23;20325;-85
2022/12/27 11:48:45;;;;;;;0.90;0.70;;;;;;;12.00;35.67;98873.00;6042250;23;20348;-85
2022/12/27 11:51:43;;;;;;;0.93;0.80;;;;;;;11.92;35.74;98854.59;5952197;24;20023;-85
2022/12/27 11:54:11;;;;;;;1.25;0.90;;;;;;;11.77;35.77;98836.28;6023321;23;20011;-86
2022/12/27 11:56:40;;;;;;;0.95;0.70;;;;;;;11.91;35.98;98852.97;6038417;23;20061;-86
2022/12/27 11:59:36;;;;;;;1.08;0.80;;;;;;;12.02;35.83;98856.66;6015073;23;20010;-86
2022/12/27 12:02:26;;;;;;;1.33;0.63;;;;;;;12.04;35.75;98873.34;6033723;23;20027;-86
2022/12/27 12:05:20;;;;;;;1.00;0.82;;;;;;;12.01;35.71;98874.59;5963236;23;20031;-85
2022/12/27 12:08:12;;;;;;;0.70;0.70;;;;;;;11.81;35.83;98836.63;5987973;23;20102;-86
2022/12/27 12:10:47;;;;;;;0.40;0.40;;;;;;;12.05;35.93;98871.47;5967252;23;20071;-86
2022/12/27 12:13:36;;;;;;;1.30;0.73;;;;;;;11.72;35.90;98827.34;5986975;23;20094;-86
2022/12/27 12:16:34;;;;;;;1.75;0.90;;;;;;;11.77;35.80;98836.28;5990664;23;20014;-86
2022/12/27 12:19:18;;;;;;;0.77;0.63;;;;;;;12.02;35.88;98865.53;5990259;23;20012;-86
2022/12/27 12:22:05;;;;;;;0.55;0.52;;;;;;;12.01;35.79;98858.53;6009900;23;20011;-85
2022/12/27 12:24:49;;;;;;;1.85;1.05;;;;;;;12.04;36.05;98865.31;5986418;23;20354;-86
2022/12/27 12:27:26;;;;;;;0.63;0.60;;;;;;;12.03;35.91;98863.66;6009773;23;20026;-86
2022/12/27 12:30:17;;;;;;;1.00;0.70;;;;;;;12.02;36.09;98854.00;5965154;23;20670;-86
2022/12/27 12:33:05;;;;;;;1.33;0.80;;;;;;;11.78;36.16;98819.19;6010328;23;20007;-86
2022/12/27 12:36:10;;;;;;;1.85;0.70;;;;;;;12.06;35.92;98849.00;5987045;23;20077;-86
2022/12/27 12:38:55;;;;;;;0.70;0.70;;;;;;;12.05;35.96;98840.13;5986640;23;20021;-86
2022/12/27 12:42:08;;;;;;;0.88;0.63;;;;;;;12.05;36.17;98831.31;5985705;23;20206;-86
2022/12/27 12:45:06;;;;;;;0.63;0.55;;;;;;;11.89;35.81;98809.53;5990189;23;20011;-86
2022/12/27 12:47:51;;;;;;;0.95;0.82;;;;;;;12.02;36.41;98829.88;5975063;23;20022;-86
2022/12/27 12:50:32;;;;;;;1.10;0.70;;;;;;;12.03;36.07;98834.22;6009373;23;20018;-86
2022/12/27 12:53:07;;;;;;;1.58;0.75;;;;;;;11.94;36.04;98820.38;6009473;23;20022;-86
2022/12/27 12:55:45;;;;;;;0.60;0.60;;;;;;;12.02;36.00;98828.03;5985819;23;20540;-86
2022/12/27 12:58:21;;;;;;;1.30;0.80;;;;;;;11.85;35.92;98811.03;5986124;23;20011;-86
2022/12/27 13:01:02;;;;;;;0.80;0.80;;;;;;;12.02;36.14;98840.59;5985891;23;20355;-86
2022/12/27 13:03:47;;;;;;;0.90;0.77;;;;;;;12.03;36.36;98851.06;6023653;23;20023;-86
2022/12/27 13:06:45;;;;;;;0.70;0.70;;;;;;;12.05;36.20;98844.69;6061603;23;20018;-86
2022/12/27 13:09:22;;;;;;;0.85;0.60;;;;;;;12.07;36.09;98851.41;5999166;23;20038;-85
2022/12/27 13:12:11;;;;;;;0.80;0.70;;;;;;;12.05;36.16;98839.34;6038727;23;20006;-86
2022/12/27 13:14:59;;;;;;;1.10;0.65;;;;;;;11.93;36.29;98818.72;6031149;23;20010;-86
2022/12/27 13:17:37;;;;;;;1.48;0.80;;;;;;;12.05;36.18;98833.97;6037090;23;20010;-85
2022/12/27 13:20:02;;;;;;;0.50;0.50;;;;;;;12.03;36.14;98829.66;6058047;23;20007;-85
2022/12/27 13:23:06;;;;;;;2.55;0.70;;;;;;;11.82;36.05;98796.25;6057413;23;20180;-86
2022/12/27 13:26:00;;;;;;;0.57;0.57;;;;;;;11.74;36.19;98777.88;6012264;23;20524;-86
2022/12/27 13:29:00;;;;;;;1.17;0.60;;;;;;;12.05;36.04;98832.09;5999771;23;20010;-86
2022/12/27 13:31:33;;;;;;;0.60;0.60;;;;;;;12.06;36.31;98823.03;6057222;23;20066;-85
2022/12/27 13:34:09;;;;;;;0.75;0.70;;;;;;;11.66;36.16;98770.22;6033384;23;20022;-86
2022/12/27 13:37:09;;;;;;;0.70;0.63;;;;;;;11.96;36.08;98806.75;6033146;23;20015;-86